Time;durP1;ratioP1;P1;durP2;ratioP2;P2;SDS_P1;SDS_P2;PMS_P1;PMS_P2;Temp;Humidity;BMP_temperature;BMP_pressure;BME280_temperature;BME280_humidity;BME280_pressure;Samples;Min_cycle;Max_cycle;Signal;HPM_P1;HPM_P2
2022/02/07 00:00:16;;;;;;;4.83;1.80;;;4.50;99.90;;;;;;5074547;28;20436;-70
2022/02/07 00:05:28;;;;;;;2.83;1.33;;;4.20;99.90;;;;;;5074028;28;20394;-70
2022/02/07 00:07:55;;;;;;;3.80;2.37;;;4.10;99.90;;;;;;5054255;28;20912;-70
2022/02/07 00:10:21;;;;;;;1.90;1.20;;;4.10;99.90;;;;;;5055024;28;20465;-70
2022/02/07 00:12:47;;;;;;;1.70;1.60;;;4.10;99.90;;;;;;5073024;28;20397;-69
2022/02/07 00:15:14;;;;;;;1.97;1.20;;;4.10;99.90;;;;;;5073871;28;20488;-70
2022/02/07 00:17:40;;;;;;;4.43;2.07;;;4.00;99.90;;;;;;5071832;28;20172;-70
2022/02/07 00:20:10;;;;;;;3.87;1.60;;;4.00;99.90;;;;;;5055827;28;20621;-70
2022/02/07 00:22:36;;;;;;;4.00;1.93;;;4.00;99.90;;;;;;5073533;28;20422;-69
2022/02/07 00:25:02;;;;;;;3.50;1.70;;;4.00;99.90;;;;;;5073668;28;20405;-71
2022/02/07 00:27:28;;;;;;;4.10;1.60;;;3.90;99.90;;;;;;5073026;28;20183;-71
2022/02/07 00:29:53;;;;;;;2.43;1.50;;;3.90;99.90;;;;;;5070875;28;20459;-70
2022/02/07 00:32:19;;;;;;;1.67;1.47;;;4.00;99.90;;;;;;5073598;28;20162;-69
2022/02/07 00:34:44;;;;;;;4.47;1.97;;;4.00;99.90;;;;;;5073491;28;20643;-69
2022/02/07 00:37:10;;;;;;;6.17;2.40;;;4.00;99.90;;;;;;5053506;28;20705;-70
2022/02/07 00:39:46;;;;;;;7.53;2.20;;;4.20;99.90;;;;;;5054123;28;20201;-69
2022/02/07 00:42:22;;;;;;;6.07;1.87;;;4.20;99.90;;;;;;5053231;28;20159;-69
2022/02/07 00:44:49;;;;;;;2.63;1.60;;;4.10;99.90;;;;;;5053339;28;20402;-70
2022/02/07 00:47:15;;;;;;;3.83;1.90;;;4.00;99.90;;;;;;5052994;28;20406;-70
2022/02/07 00:49:44;;;;;;;3.43;1.77;;;4.00;99.90;;;;;;5040762;28;20688;-70
2022/02/07 00:52:10;;;;;;;3.53;1.90;;;4.00;99.90;;;;;;5073133;28;20402;-70
2022/02/07 00:54:35;;;;;;;8.17;2.27;;;4.10;99.90;;;;;;5073212;28;20430;-70
2022/02/07 00:57:01;;;;;;;5.10;1.70;;;4.00;99.90;;;;;;5072916;28;20207;-70
2022/02/07 00:59:27;;;;;;;3.13;1.57;;;4.10;99.90;;;;;;5072983;28;20293;-70
2022/02/07 01:01:52;;;;;;;3.73;1.50;;;4.20;99.90;;;;;;5071326;28;20188;-70
2022/02/07 01:04:18;;;;;;;5.70;2.07;;;4.20;99.90;;;;;;5072926;28;20190;-70
2022/02/07 01:06:43;;;;;;;2.93;1.90;;;4.00;99.90;;;;;;5072314;28;20229;-69
2022/02/07 01:09:23;;;;;;;2.47;1.50;;;4.00;99.90;;;;;;5072974;28;20234;-69
2022/02/07 01:17:39;;;;;;;4.13;1.60;;;3.90;99.90;;;;;;5072873;28;20551;-69
2022/02/07 01:22:43;;;;;;;4.17;1.70;;;3.80;99.90;;;;;;5070479;28;20429;-69
2022/02/07 01:50:16;;;;;;;9.03;3.20;;;4.10;99.90;;;;;;5020709;28;20529;-70
2022/02/07 01:52:55;;;;;;;6.33;2.90;;;4.20;99.90;;;;;;5052132;28;20410;-70
2022/02/07 01:55:34;;;;;;;8.23;2.70;;;3.90;99.90;;;;;;5071669;28;20797;-71
2022/02/07 01:58:01;;;;;;;6.23;2.80;;;3.90;99.90;;;;;;5071943;28;20489;-70
2022/02/07 02:00:27;;;;;;;7.70;2.97;;;4.00;99.90;;;;;;5071892;28;20420;-70
2022/02/07 02:02:52;;;;;;;15.27;3.00;;;4.00;99.90;;;;;;5072016;28;20464;-70
2022/02/07 02:05:18;;;;;;;6.97;3.07;;;4.00;99.90;;;;;;5070230;28;20191;-71
2022/02/07 02:07:44;;;;;;;9.63;2.90;;;4.00;99.90;;;;;;5071038;28;20544;-68
2022/02/07 02:10:10;;;;;;;8.10;3.13;;;3.90;99.90;;;;;;5053569;28;20199;-70
2022/02/07 02:12:47;;;;;;;6.90;3.20;;;3.90;99.90;;;;;;5071875;28;20168;-69
2022/02/07 02:45:27;;;;;;;7.40;3.33;;;4.30;99.90;;;;;;5060957;28;20447;-70
2022/02/07 02:47:23;;;;;;;10.43;3.20;;;4.50;99.90;;;;;;5051512;28;20405;-70
2022/02/07 02:49:59;;;;;;;9.40;2.83;;;4.50;99.90;;;;;;5052396;28;20970;-69
2022/02/07 02:52:25;;;;;;;8.57;3.20;;;4.50;99.90;;;;;;5033271;28;20408;-70
2022/02/07 02:54:50;;;;;;;14.30;4.00;;;4.50;99.90;;;;;;5051390;28;20953;-70
2022/02/07 02:57:16;;;;;;;11.80;3.37;;;4.30;99.90;;;;;;5051034;28;20177;-70
2022/02/07 02:59:41;;;;;;;14.10;3.40;;;4.20;99.90;;;;;;5052331;28;20279;-70
2022/02/07 03:02:07;;;;;;;14.70;2.87;;;4.30;99.90;;;;;;5051196;28;20167;-71
2022/02/07 03:04:32;;;;;;;14.27;3.87;;;4.40;99.90;;;;;;5051023;28;20242;-69
2022/02/07 03:06:58;;;;;;;6.63;2.70;;;4.50;99.90;;;;;;5050956;28;20181;-69
2022/02/07 03:09:23;;;;;;;6.07;2.63;;;4.40;99.90;;;;;;5051289;28;20629;-70
2022/02/07 03:11:50;;;;;;;5.73;2.50;;;4.40;99.90;;;;;;5052484;28;20193;-70
2022/02/07 03:14:22;;;;;;;5.63;2.40;;;4.40;99.90;;;;;;5051164;28;20169;-70
2022/02/07 03:16:47;;;;;;;2.50;1.60;;;4.50;99.90;;;;;;5050886;28;20439;-70
2022/02/07 03:19:17;;;;;;;4.73;2.30;;;4.50;99.90;;;;;;5050996;28;20478;-70
2022/02/07 03:21:43;;;;;;;8.40;2.50;;;4.50;99.90;;;;;;5052179;28;20177;-70
2022/02/07 03:24:10;;;;;;;8.00;2.50;;;4.50;99.90;;;;;;5051193;28;20434;-70
2022/02/07 03:26:44;;;;;;;3.30;1.73;;;4.40;99.90;;;;;;5032732;28;20420;-70
2022/02/07 03:29:12;;;;;;;9.10;2.20;;;4.30;99.90;;;;;;5050717;28;20474;-69
2022/02/07 03:31:37;;;;;;;3.87;1.73;;;4.40;99.90;;;;;;5058130;22;21015;-67
2022/02/07 03:34:04;;;;;;;8.50;1.90;;;4.40;99.90;;;;;;5034969;28;20416;-69
2022/02/07 03:36:31;;;;;;;8.10;2.73;;;4.60;99.90;;;;;;5031742;28;20236;-69
2022/02/07 03:38:57;;;;;;;6.50;1.77;;;4.60;99.90;;;;;;5031250;28;20771;-69
2022/02/07 03:41:23;;;;;;;3.33;1.70;;;4.60;99.90;;;;;;5032796;28;20948;-69
2022/02/07 03:43:49;;;;;;;4.57;2.37;;;4.60;99.90;;;;;;5034311;28;20644;-69
2022/02/07 03:46:15;;;;;;;7.90;1.80;;;4.70;99.90;;;;;;5034804;28;20167;-69
2022/02/07 03:48:40;;;;;;;3.27;1.30;;;4.60;99.90;;;;;;5036051;28;20412;-68
2022/02/07 03:51:06;;;;;;;4.80;1.60;;;4.60;99.90;;;;;;5035389;28;20211;-69
2022/02/07 03:53:31;;;;;;;5.27;2.13;;;4.70;99.90;;;;;;5037075;28;20194;-68
2022/02/07 03:55:57;;;;;;;6.37;1.67;;;4.70;99.90;;;;;;5018086;28;20170;-68
2022/02/07 03:58:22;;;;;;;5.73;2.07;;;4.70;99.90;;;;;;5036071;28;20315;-69
2022/02/07 04:00:50;;;;;;;5.57;1.63;;;4.70;99.90;;;;;;5036134;28;20208;-69
2022/02/07 04:03:22;;;;;;;4.43;2.07;;;4.70;99.90;;;;;;5036710;28;20183;-69
2022/02/07 04:08:16;;;;;;;4.23;1.40;;;4.70;99.90;;;;;;5036484;28;20462;-69
2022/02/07 04:11:09;;;;;;;5.23;1.60;;;4.80;99.90;;;;;;5036010;28;20502;-68
2022/02/07 04:13:31;;;;;;;5.13;1.67;;;4.80;99.90;;;;;;5036190;28;20425;-67
2022/02/07 04:15:58;;;;;;;3.53;1.60;;;4.90;99.90;;;;;;5054823;28;20423;-68
2022/02/07 04:18:27;;;;;;;6.40;2.00;;;4.90;99.90;;;;;;5038253;28;20409;-69
2022/02/07 04:20:52;;;;;;;8.00;1.47;;;4.90;99.90;;;;;;5055497;28;20440;-69
2022/02/07 04:23:18;;;;;;;5.20;2.10;;;4.90;99.90;;;;;;5055516;28;20415;-69
2022/02/07 04:25:43;;;;;;;4.10;1.67;;;4.90;99.90;;;;;;5035919;28;20213;-69
2022/02/07 04:28:09;;;;;;;6.40;2.37;;;4.90;99.90;;;;;;5055378;28;20575;-68
2022/02/07 04:30:34;;;;;;;6.10;2.00;;;4.90;99.90;;;;;;5055260;28;20237;-68
2022/02/07 04:33:00;;;;;;;8.20;1.83;;;4.70;99.90;;;;;;5054191;28;20170;-68
2022/02/07 04:35:25;;;;;;;3.40;1.70;;;4.70;99.90;;;;;;5053452;28;20170;-68
2022/02/07 04:37:51;;;;;;;4.10;1.50;;;4.60;99.90;;;;;;5054992;28;20660;-68
2022/02/07 04:40:17;;;;;;;9.13;2.00;;;4.50;99.90;;;;;;5034917;28;20690;-68
2022/02/07 04:42:43;;;;;;;11.50;1.90;;;4.50;99.90;;;;;;5035009;28;20624;-68
2022/02/07 04:50:42;;;;;;;5.07;1.73;;;4.70;99.90;;;;;;5030635;28;20270;-68
2022/02/07 04:53:15;;;;;;;3.97;1.57;;;4.50;99.90;;;;;;5032725;28;20732;-68
2022/02/07 05:01:13;;;;;;;5.80;2.27;;;4.50;99.90;;;;;;5035377;28;20463;-68
2022/02/07 05:03:46;;;;;;;13.73;1.90;;;4.50;99.90;;;;;;5023705;28;21083;-68
2022/02/07 05:14:34;;;;;;;5.07;2.30;;;4.80;99.90;;;;;;5034477;28;21018;-68
2022/02/07 05:17:01;;;;;;;10.03;2.17;;;4.60;99.90;;;;;;5034855;28;20451;-67
2022/02/07 05:19:26;;;;;;;9.83;2.33;;;4.60;99.90;;;;;;5033876;28;20471;-68
2022/02/07 05:21:52;;;;;;;6.77;2.73;;;4.60;99.90;;;;;;5030986;28;20446;-68
2022/02/07 05:24:17;;;;;;;9.43;2.93;;;4.60;99.90;;;;;;5025243;28;20221;-67
2022/02/07 05:26:43;;;;;;;4.70;2.10;;;4.70;99.90;;;;;;5024398;28;20202;-67
2022/02/07 05:29:09;;;;;;;9.77;2.73;;;4.60;99.90;;;;;;5032486;28;20204;-67
2022/02/07 05:31:34;;;;;;;6.90;2.30;;;4.60;99.90;;;;;;5040229;28;20205;-67
2022/02/07 05:34:01;;;;;;;7.60;2.27;;;4.70;99.90;;;;;;5054498;28;20216;-68
2022/02/07 05:36:27;;;;;;;6.80;2.10;;;4.70;99.90;;;;;;5055996;28;20177;-67
2022/02/07 05:38:56;;;;;;;5.17;1.73;;;4.80;99.90;;;;;;5039238;28;20465;-68
2022/02/07 05:41:23;;;;;;;5.67;1.90;;;4.80;99.90;;;;;;5055967;28;20486;-68
2022/02/07 05:43:51;;;;;;;10.17;2.20;;;4.70;99.90;;;;;;5054113;28;20759;-67
2022/02/07 05:46:17;;;;;;;8.80;2.67;;;4.70;99.90;;;;;;5055748;28;20420;-68
2022/02/07 05:48:43;;;;;;;11.90;2.90;;;4.70;99.90;;;;;;5056167;28;20480;-67
2022/02/07 05:51:08;;;;;;;7.80;2.90;;;4.80;99.90;;;;;;5055361;28;20463;-68
2022/02/07 05:53:35;;;;;;;8.53;2.43;;;4.80;99.90;;;;;;5053727;28;20527;-67
2022/02/07 05:56:00;;;;;;;9.63;2.00;;;4.80;99.90;;;;;;5055201;28;20701;-67
2022/02/07 05:58:27;;;;;;;13.30;2.80;;;4.90;99.90;;;;;;5055053;28;20499;-67
2022/02/07 06:00:54;;;;;;;5.90;2.20;;;4.90;99.90;;;;;;5055673;28;20231;-67
2022/02/07 06:03:20;;;;;;;12.13;2.70;;;4.90;99.90;;;;;;5053775;28;20456;-67
2022/02/07 06:05:46;;;;;;;5.03;2.00;;;4.90;99.90;;;;;;5054830;28;20478;-67
2022/02/07 06:08:12;;;;;;;6.93;2.10;;;4.90;99.90;;;;;;5054263;28;20896;-67
2022/02/07 06:10:37;;;;;;;13.37;3.60;;;4.90;99.90;;;;;;5055211;28;20455;-68
2022/02/07 06:13:05;;;;;;;9.23;2.63;;;4.90;99.90;;;;;;5055537;28;20173;-68
2022/02/07 06:15:31;;;;;;;11.03;2.70;;;4.90;99.90;;;;;;5054061;28;20699;-66
2022/02/07 06:17:59;;;;;;;9.27;3.00;;;4.80;99.90;;;;;;5055332;28;20401;-67
2022/02/07 06:20:25;;;;;;;7.60;2.47;;;4.80;99.90;;;;;;5055583;28;20186;-68
2022/02/07 06:22:51;;;;;;;4.43;2.00;;;4.80;99.90;;;;;;5058935;28;20461;-67
2022/02/07 06:25:17;;;;;;;5.90;3.10;;;4.70;99.90;;;;;;5052467;28;20435;-67
2022/02/07 06:27:43;;;;;;;10.47;3.10;;;4.80;99.90;;;;;;5053270;28;20268;-68
2022/02/07 06:30:10;;;;;;;12.43;2.60;;;4.90;99.90;;;;;;5054253;28;20503;-68
2022/02/07 06:32:37;;;;;;;12.73;3.80;;;5.00;99.90;;;;;;5054180;28;20175;-68
2022/02/07 06:35:03;;;;;;;8.60;2.57;;;5.00;99.90;;;;;;5052271;28;20420;-68
2022/02/07 06:37:29;;;;;;;11.50;3.07;;;5.00;99.90;;;;;;5053617;28;20412;-68
2022/02/07 06:39:54;;;;;;;11.97;3.83;;;5.00;99.90;;;;;;5036743;28;20428;-67
2022/02/07 06:42:21;;;;;;;7.53;2.60;;;5.00;99.90;;;;;;5036107;28;20236;-68
2022/02/07 06:44:46;;;;;;;6.73;2.60;;;4.90;99.90;;;;;;5017178;28;20178;-67
2022/02/07 06:47:12;;;;;;;20.17;2.83;;;4.90;99.90;;;;;;5038272;28;20813;-68
2022/02/07 06:49:38;;;;;;;9.53;3.27;;;5.00;99.90;;;;;;5043075;28;20186;-68
2022/02/07 06:52:03;;;;;;;8.20;4.03;;;4.90;99.90;;;;;;5038560;28;20301;-68
2022/02/07 06:54:29;;;;;;;11.00;3.20;;;5.00;99.90;;;;;;5037312;28;20183;-68
2022/02/07 06:56:54;;;;;;;8.60;2.90;;;5.00;99.90;;;;;;5037236;28;20803;-68
2022/02/07 06:59:20;;;;;;;11.07;3.33;;;5.10;99.90;;;;;;5038170;28;20694;-68
2022/02/07 07:01:46;;;;;;;9.10;3.33;;;5.10;99.90;;;;;;5037386;28;20193;-69
2022/02/07 07:04:12;;;;;;;9.83;3.07;;;5.20;99.90;;;;;;5036709;28;20420;-68
2022/02/07 07:06:39;;;;;;;12.07;4.20;;;5.20;99.90;;;;;;5037746;28;20217;-68
2022/02/07 07:09:06;;;;;;;6.50;2.73;;;5.10;99.90;;;;;;5036742;28;20978;-69
2022/02/07 07:11:33;;;;;;;15.20;3.53;;;5.10;99.90;;;;;;5020080;28;20461;-68
2022/02/07 07:14:12;;;;;;;6.70;2.87;;;5.10;99.90;;;;;;5019764;28;20658;-69
2022/02/07 07:16:50;;;;;;;8.50;3.20;;;5.20;99.90;;;;;;5037118;28;20395;-68
2022/02/07 07:19:16;;;;;;;12.70;3.87;;;5.10;99.90;;;;;;5018952;28;20420;-68
2022/02/07 07:21:41;;;;;;;10.23;3.70;;;5.20;99.90;;;;;;5041752;28;20488;-68
2022/02/07 07:24:07;;;;;;;12.87;3.73;;;5.10;99.90;;;;;;5041847;28;20417;-69
2022/02/07 07:26:33;;;;;;;16.00;3.83;;;5.10;99.90;;;;;;5024057;28;20603;-68
2022/02/07 07:29:02;;;;;;;16.33;3.80;;;5.10;99.90;;;;;;5023644;28;20188;-68
2022/02/07 07:31:28;;;;;;;9.20;3.50;;;5.20;99.90;;;;;;5025791;28;20461;-68
2022/02/07 07:33:54;;;;;;;6.13;3.70;;;5.30;99.90;;;;;;5024612;28;20421;-68
2022/02/07 07:36:21;;;;;;;11.33;3.70;;;5.30;99.90;;;;;;5023091;28;20419;-68
2022/02/07 07:38:47;;;;;;;17.57;3.70;;;5.40;99.90;;;;;;5022945;28;20439;-67
2022/02/07 07:41:13;;;;;;;9.00;3.10;;;5.40;99.90;;;;;;5041883;28;20437;-68
2022/02/07 07:43:40;;;;;;;13.30;4.10;;;5.40;99.90;;;;;;5042210;28;20433;-68
2022/02/07 07:46:11;;;;;;;12.40;4.20;;;5.40;99.90;;;;;;5040895;28;20163;-69
2022/02/07 07:48:37;;;;;;;9.50;3.77;;;5.40;99.90;;;;;;5042027;28;20779;-69
2022/02/07 07:51:08;;;;;;;9.43;3.43;;;5.40;99.90;;;;;;5048098;28;20872;-68
2022/02/07 08:01:50;;;;;;;14.97;3.80;;;5.40;99.90;;;;;;5057463;28;20425;-67
2022/02/07 08:04:19;;;;;;;8.10;3.50;;;5.40;99.90;;;;;;5058792;28;20414;-68
2022/02/07 08:09:21;;;;;;;19.47;6.43;;;5.40;99.90;;;;;;5049282;28;20414;-67
2022/02/07 08:11:47;;;;;;;5.90;3.03;;;5.50;99.90;;;;;;5043022;28;20226;-68
2022/02/07 08:14:13;;;;;;;16.53;4.73;;;5.50;99.90;;;;;;5038173;28;20421;-68
2022/02/07 08:16:38;;;;;;;9.37;3.43;;;5.50;99.90;;;;;;5038187;28;20210;-67
2022/02/07 08:19:07;;;;;;;7.40;4.70;;;5.50;99.90;;;;;;5021475;28;20171;-68
2022/02/07 08:21:35;;;;;;;8.07;3.30;;;5.50;99.90;;;;;;5018790;28;20285;-67
2022/02/07 08:24:01;;;;;;;11.07;3.20;;;5.60;99.90;;;;;;5019096;28;20421;-69
2022/02/07 08:26:27;;;;;;;14.10;3.10;;;5.60;99.90;;;;;;5020020;28;20507;-68
2022/02/07 08:28:52;;;;;;;8.07;3.33;;;5.70;99.90;;;;;;5039185;28;20436;-67
2022/02/07 08:31:18;;;;;;;15.97;4.27;;;5.80;99.90;;;;;;5038397;28;20223;-68
2022/02/07 08:33:46;;;;;;;4.90;2.50;;;5.70;99.90;;;;;;5020692;28;20167;-68
2022/02/07 08:36:12;;;;;;;6.53;2.80;;;5.60;99.90;;;;;;5039234;28;20651;-69
2022/02/07 08:38:37;;;;;;;8.90;2.97;;;5.50;99.90;;;;;;5045120;28;20438;-67
2022/02/07 08:41:03;;;;;;;11.10;3.33;;;5.50;99.90;;;;;;5057914;28;20205;-68
2022/02/07 08:43:28;;;;;;;12.60;2.87;;;5.50;99.90;;;;;;5039276;28;20663;-68
2022/02/07 08:45:53;;;;;;;14.93;5.27;;;5.60;99.90;;;;;;5037150;28;20182;-68
2022/02/07 08:48:19;;;;;;;6.27;2.80;;;5.60;99.90;;;;;;5036251;28;20185;-67
2022/02/07 08:50:45;;;;;;;10.20;3.33;;;5.60;99.90;;;;;;5054577;28;20205;-67
2022/02/07 08:53:12;;;;;;;12.83;3.27;;;5.70;99.90;;;;;;5018023;28;20190;-67
2022/02/07 08:55:41;;;;;;;6.90;2.80;;;5.60;99.90;;;;;;5035680;28;20424;-68
2022/02/07 08:58:10;;;;;;;12.30;3.70;;;5.50;99.90;;;;;;5019873;28;20425;-68
2022/02/07 09:00:45;;;;;;;7.47;3.07;;;5.50;99.90;;;;;;5035997;28;20987;-68
2022/02/07 09:05:55;;;;;;;7.40;3.10;;;5.50;99.90;;;;;;5035673;28;20428;-68
2022/02/07 09:08:25;;;;;;;11.83;3.77;;;5.60;99.90;;;;;;5018248;28;20414;-68
2022/02/07 09:10:52;;;;;;;9.67;3.90;;;5.70;99.90;;;;;;5038198;28;20567;-68
2022/02/07 09:13:19;;;;;;;10.73;3.80;;;5.60;99.90;;;;;;5034350;28;20421;-69
2022/02/07 09:16:02;;;;;;;13.23;4.00;;;5.70;99.90;;;;;;5016795;28;20512;-68
2022/02/07 09:18:28;;;;;;;7.20;3.53;;;5.70;99.90;;;;;;5015480;28;20415;-68
2022/02/07 09:20:55;;;;;;;13.77;3.43;;;5.80;99.90;;;;;;5023302;28;20586;-68
2022/02/07 09:23:21;;;;;;;12.77;4.07;;;5.80;99.90;;;;;;5035054;28;20171;-69
2022/02/07 09:25:47;;;;;;;11.63;3.80;;;5.80;99.90;;;;;;5034747;28;20405;-69
2022/02/07 09:28:12;;;;;;;10.63;3.97;;;5.90;99.90;;;;;;5017340;28;20183;-68
2022/02/07 09:30:38;;;;;;;9.70;3.93;;;5.90;99.90;;;;;;5034959;28;20377;-68
2022/02/07 09:33:04;;;;;;;17.17;5.53;;;5.80;99.90;;;;;;5018505;28;20265;-68
2022/02/07 09:35:29;;;;;;;9.73;4.40;;;5.70;99.90;;;;;;5034768;28;20178;-69
2022/02/07 09:37:55;;;;;;;13.00;4.17;;;5.80;99.90;;;;;;5034821;28;20171;-68
2022/02/07 09:40:21;;;;;;;15.00;5.17;;;5.90;99.90;;;;;;5034368;28;20214;-68
2022/02/07 09:42:55;;;;;;;13.43;6.27;;;5.90;99.90;;;;;;5035467;28;20178;-69
2022/02/07 09:45:30;;;;;;;10.10;6.13;;;5.90;99.90;;;;;;5034539;28;20396;-68
2022/02/07 09:47:58;;;;;;;14.00;5.70;;;5.80;99.90;;;;;;5016881;28;20409;-68
2022/02/07 09:50:23;;;;;;;12.50;7.07;;;5.80;99.90;;;;;;5034683;28;20596;-68
2022/02/07 09:52:49;;;;;;;14.60;6.07;;;5.90;99.90;;;;;;5035757;28;20441;-68
2022/02/07 09:55:14;;;;;;;9.80;5.50;;;5.90;99.90;;;;;;5034481;28;20171;-68
2022/02/07 09:57:40;;;;;;;9.83;5.60;;;6.00;99.90;;;;;;5034596;28;20217;-68
2022/02/07 10:00:08;;;;;;;11.47;5.07;;;6.00;99.90;;;;;;5034785;28;20203;-68
2022/02/07 10:02:46;;;;;;;12.33;4.60;;;6.10;99.90;;;;;;5017401;28;20171;-68
2022/02/07 10:05:21;;;;;;;13.03;4.87;;;6.10;99.90;;;;;;5035327;28;20815;-68
2022/02/07 10:08:10;;;;;;;12.97;4.40;;;6.20;99.90;;;;;;5033888;28;20436;-68
2022/02/07 10:10:44;;;;;;;13.67;4.63;;;6.20;99.90;;;;;;5034580;28;20536;-68
2022/02/07 10:18:17;;;;;;;10.30;4.53;;;6.50;99.90;;;;;;5034746;28;20199;-68
2022/02/07 10:21:25;;;;;;;10.70;3.70;;;6.60;99.90;;;;;;5033656;28;20443;-68
2022/02/07 10:35:24;;;;;;;10.77;4.03;;;6.80;99.90;;;;;;5034691;28;20432;-68
2022/02/07 10:40:29;;;;;;;11.53;5.00;;;6.80;99.90;;;;;;5053465;28;20436;-68
2022/02/07 10:46:01;;;;;;;15.63;4.00;;;6.80;99.90;;;;;;5052941;28;20384;-68
2022/02/07 10:48:29;;;;;;;11.20;3.67;;;6.90;99.90;;;;;;5052042;28;20487;-67
2022/02/07 10:51:08;;;;;;;9.40;3.80;;;7.00;99.90;;;;;;5013948;28;21180;-68
2022/02/07 10:53:38;;;;;;;13.90;4.60;;;7.00;99.90;;;;;;5014115;28;20806;-68
2022/02/07 10:56:05;;;;;;;15.10;4.73;;;6.90;99.90;;;;;;5016457;28;20414;-67
2022/02/07 10:58:31;;;;;;;10.00;4.87;;;7.00;99.90;;;;;;5017936;28;20407;-68
2022/02/07 11:01:04;;;;;;;15.13;5.00;;;7.00;99.90;;;;;;5018060;28;20540;-68
2022/02/07 11:03:37;;;;;;;10.17;4.43;;;7.10;99.90;;;;;;5037654;28;20385;-68
2022/02/07 11:06:05;;;;;;;11.53;3.93;;;7.20;99.90;;;;;;5036544;28;20412;-68
2022/02/07 11:09:05;;;;;;;12.07;4.60;;;7.30;99.90;;;;;;5036194;28;20402;-68
2022/02/07 11:16:52;;;;;;;13.33;4.87;;;7.20;99.90;;;;;;5026104;28;20407;-68
2022/02/07 11:27:50;;;;;;;16.67;4.80;;;7.20;99.90;;;;;;5036067;28;20409;-67
2022/02/07 11:30:18;;;;;;;11.77;4.37;;;7.20;99.90;;;;;;5036974;28;20891;-68
2022/02/07 11:32:45;;;;;;;26.90;5.90;;;7.20;99.90;;;;;;5038886;28;20700;-68
2022/02/07 11:35:14;;;;;;;10.13;4.07;;;7.20;99.90;;;;;;5037528;28;20406;-68
2022/02/07 11:37:41;;;;;;;9.50;4.07;;;7.20;99.90;;;;;;5037755;28;20418;-68
2022/02/07 11:40:28;;;;;;;11.57;4.70;;;7.10;99.90;;;;;;5037684;28;20429;-68
2022/02/07 11:43:06;;;;;;;12.63;4.67;;;7.00;99.90;;;;;;5038989;28;20502;-68
2022/02/07 11:45:48;;;;;;;11.53;4.53;;;7.00;99.90;;;;;;5041066;28;20449;-67
2022/02/07 11:48:14;;;;;;;24.10;4.60;;;7.10;99.90;;;;;;5042706;28;20410;-69
2022/02/07 11:50:44;;;;;;;12.13;4.37;;;7.20;99.90;;;;;;5019837;28;21011;-69
2022/02/07 11:53:11;;;;;;;9.70;4.00;;;7.20;99.90;;;;;;5038609;28;20667;-68
2022/02/07 11:55:42;;;;;;;22.67;4.87;;;7.20;99.90;;;;;;5019842;28;20413;-68
2022/02/07 11:58:13;;;;;;;15.37;5.10;;;7.30;99.90;;;;;;5020083;28;20418;-69
2022/02/07 12:00:46;;;;;;;12.00;4.13;;;7.30;99.90;;;;;;5037190;28;20454;-68
2022/02/07 12:03:14;;;;;;;11.90;4.00;;;7.40;99.90;;;;;;5022253;28;20463;-68
2022/02/07 12:05:55;;;;;;;17.70;4.50;;;7.40;99.90;;;;;;5037710;28;21047;-69
2022/02/07 12:08:26;;;;;;;11.50;4.23;;;7.50;99.90;;;;;;5037412;28;20429;-68
2022/02/07 12:11:01;;;;;;;10.83;4.50;;;7.60;99.90;;;;;;5037313;28;20802;-68
2022/02/07 12:13:29;;;;;;;9.33;5.20;;;7.60;99.90;;;;;;5037744;28;20752;-69
2022/02/07 12:15:56;;;;;;;15.97;4.40;;;7.50;99.90;;;;;;5038247;28;20524;-68
2022/02/07 12:18:25;;;;;;;16.00;4.20;;;7.40;99.90;;;;;;5038258;28;20461;-68
2022/02/07 12:21:11;;;;;;;7.90;3.37;;;7.40;99.90;;;;;;5040181;28;20471;-68
2022/02/07 12:23:37;;;;;;;9.57;3.83;;;7.30;99.90;;;;;;5047919;28;20415;-68
2022/02/07 12:26:12;;;;;;;12.13;3.77;;;7.30;99.90;;;;;;5017022;28;20422;-67
2022/02/07 12:28:44;;;;;;;9.37;4.10;;;7.10;99.90;;;;;;5067099;28;20450;-68
2022/02/07 12:31:21;;;;;;;10.63;4.10;;;7.20;99.90;;;;;;5070252;28;20464;-67
2022/02/07 12:33:55;;;;;;;8.87;3.63;;;7.10;99.90;;;;;;5062968;28;20400;-68
2022/02/07 12:36:22;;;;;;;9.20;4.00;;;7.00;99.90;;;;;;5040224;28;20416;-69
2022/02/07 12:38:48;;;;;;;11.63;3.13;;;6.90;99.90;;;;;;5064050;28;20413;-68
2022/02/07 12:41:16;;;;;;;12.90;3.20;;;6.90;99.90;;;;;;5052617;28;20477;-70
2022/02/07 12:43:45;;;;;;;12.73;5.43;;;6.70;99.90;;;;;;5051996;28;20185;-69
2022/02/07 12:46:13;;;;;;;9.90;3.80;;;6.70;99.90;;;;;;5051336;28;20428;-68
2022/02/07 12:48:49;;;;;;;13.77;4.37;;;6.70;99.90;;;;;;5035080;28;20445;-67
2022/02/07 12:51:15;;;;;;;10.90;4.30;;;6.80;99.90;;;;;;5051999;28;20473;-68
2022/02/07 12:53:41;;;;;;;11.30;3.97;;;6.80;99.90;;;;;;5047791;28;20409;-67
2022/02/07 12:56:09;;;;;;;7.60;3.83;;;6.90;99.90;;;;;;5047292;28;20441;-68
2022/02/07 12:58:37;;;;;;;9.23;3.37;;;6.90;99.90;;;;;;5040608;28;20175;-68
2022/02/07 13:01:23;;;;;;;9.83;3.90;;;7.00;99.90;;;;;;5036015;28;20536;-68
2022/02/07 13:04:03;;;;;;;7.70;3.57;;;7.00;99.90;;;;;;5035054;28;20436;-68
2022/02/07 13:06:37;;;;;;;17.03;5.13;;;6.90;99.90;;;;;;5034306;28;20452;-67
2022/02/07 13:09:12;;;;;;;7.60;4.40;;;7.00;99.90;;;;;;5034474;28;20409;-67
2022/02/07 13:11:47;;;;;;;12.60;4.60;;;7.10;99.90;;;;;;5032919;28;20598;-69
2022/02/07 13:14:17;;;;;;;7.73;4.03;;;7.10;99.90;;;;;;5049142;28;20508;-68
2022/02/07 13:16:44;;;;;;;10.23;3.50;;;7.10;99.90;;;;;;5034660;28;20418;-69
2022/02/07 13:19:16;;;;;;;11.50;3.70;;;7.20;99.90;;;;;;5033387;28;20418;-68
2022/02/07 13:21:44;;;;;;;5.17;3.40;;;7.20;99.90;;;;;;5020777;28;20457;-68
2022/02/07 13:24:11;;;;;;;10.43;4.30;;;7.20;99.90;;;;;;5033768;28;20418;-68
2022/02/07 13:26:38;;;;;;;8.73;4.43;;;7.20;99.90;;;;;;5016017;28;20894;-67
2022/02/07 13:29:03;;;;;;;6.60;3.30;;;7.30;99.90;;;;;;5033247;28;20419;-68
2022/02/07 13:31:29;;;;;;;9.63;5.10;;;7.40;99.90;;;;;;5034582;28;20478;-70
2022/02/07 13:33:55;;;;;;;17.60;5.67;;;7.50;99.90;;;;;;5015818;28;20175;-68
2022/02/07 13:36:35;;;;;;;11.00;5.90;;;7.40;99.90;;;;;;5032998;28;20289;-70
2022/02/07 13:39:05;;;;;;;10.37;4.37;;;7.40;99.90;;;;;;5015707;28;20171;-68
2022/02/07 13:41:31;;;;;;;7.80;4.13;;;7.40;99.90;;;;;;5033540;28;20458;-68
2022/02/07 13:44:06;;;;;;;9.07;4.10;;;7.40;99.90;;;;;;5034211;28;20409;-69
2022/02/07 13:46:33;;;;;;;8.23;4.60;;;7.40;99.90;;;;;;5033103;28;20162;-67
2022/02/07 13:49:00;;;;;;;11.17;4.97;;;7.30;99.90;;;;;;5052990;28;20839;-68
2022/02/07 13:51:29;;;;;;;9.00;3.90;;;7.30;99.90;;;;;;5052840;28;20457;-69
2022/02/07 13:53:57;;;;;;;11.03;3.87;;;7.30;99.90;;;;;;5052921;28;21216;-70
2022/02/07 13:56:32;;;;;;;10.73;4.50;;;7.30;99.90;;;;;;5052963;28;20799;-68
2022/02/07 13:59:12;;;;;;;9.53;5.47;;;7.10;99.90;;;;;;5035334;28;20500;-69
2022/02/07 14:01:37;;;;;;;10.50;4.27;;;7.20;99.90;;;;;;5035327;28;20513;-69
2022/02/07 14:04:03;;;;;;;8.10;4.00;;;7.20;99.90;;;;;;5053604;28;20417;-69
2022/02/07 14:06:30;;;;;;;8.27;3.80;;;7.20;99.90;;;;;;5033464;28;20184;-68
2022/02/07 14:08:58;;;;;;;9.23;3.47;;;7.30;99.90;;;;;;5033568;28;20259;-67
2022/02/07 14:11:28;;;;;;;9.30;3.70;;;7.30;99.90;;;;;;5032864;28;20446;-69
2022/02/07 14:13:57;;;;;;;15.47;4.37;;;7.30;99.90;;;;;;5032760;28;20930;-68
2022/02/07 14:16:25;;;;;;;10.93;3.00;;;7.30;99.90;;;;;;5032506;28;20418;-67
2022/02/07 14:18:52;;;;;;;9.27;3.37;;;7.30;99.90;;;;;;5015114;28;20418;-69
2022/02/07 14:21:20;;;;;;;4.10;2.90;;;7.20;99.90;;;;;;5033355;28;20441;-69
2022/02/07 14:23:48;;;;;;;4.70;2.70;;;7.20;99.90;;;;;;5035052;28;20957;-70
2022/02/07 14:26:18;;;;;;;9.57;4.40;;;7.20;99.90;;;;;;5052055;28;20417;-68
2022/02/07 14:28:53;;;;;;;11.43;3.60;;;7.20;99.90;;;;;;5051733;28;20496;-68
2022/02/07 14:31:19;;;;;;;12.67;3.77;;;7.30;99.90;;;;;;5048036;28;20456;-67
2022/02/07 14:33:46;;;;;;;8.87;4.03;;;7.40;99.90;;;;;;5018147;28;20467;-68
2022/02/07 14:36:12;;;;;;;5.60;3.10;;;7.50;99.90;;;;;;5027083;28;20915;-68
2022/02/07 14:38:37;;;;;;;9.83;3.60;;;7.40;99.90;;;;;;5029379;28;20417;-68
2022/02/07 14:41:08;;;;;;;6.70;3.43;;;7.40;99.90;;;;;;5043921;28;20213;-69
2022/02/07 14:43:34;;;;;;;4.93;3.60;;;7.50;99.90;;;;;;5029906;28;20543;-68
2022/02/07 14:48:31;;;;;;;4.83;3.40;;;7.40;99.90;;;;;;5029331;28;20552;-68
2022/02/07 14:50:57;;;;;;;9.70;4.00;;;7.40;99.90;;;;;;5029360;28;20473;-69
2022/02/07 14:53:23;;;;;;;6.40;3.90;;;7.20;99.90;;;;;;5028880;28;20423;-68
2022/02/07 14:55:50;;;;;;;11.40;4.67;;;7.20;99.90;;;;;;5032633;28;20504;-70
2022/02/07 14:58:15;;;;;;;6.30;4.30;;;7.30;99.90;;;;;;5029714;28;20425;-69
2022/02/07 15:00:41;;;;;;;7.90;4.40;;;7.30;99.90;;;;;;5029019;28;20465;-68
2022/02/07 15:03:10;;;;;;;6.13;3.43;;;7.40;99.90;;;;;;5029791;28;20179;-68
2022/02/07 15:05:36;;;;;;;4.50;2.43;;;7.50;99.90;;;;;;5031162;28;20593;-68
2022/02/07 15:08:03;;;;;;;5.33;2.50;;;7.40;99.90;;;;;;5030639;28;20940;-69
2022/02/07 15:10:31;;;;;;;5.80;2.20;;;7.50;99.90;;;;;;5029877;28;20466;-69
2022/02/07 15:12:57;;;;;;;4.27;2.63;;;7.50;99.90;;;;;;5040511;28;20429;-68
2022/02/07 15:15:22;;;;;;;5.10;2.80;;;7.40;99.90;;;;;;5029313;28;20448;-69
2022/02/07 15:17:48;;;;;;;3.87;2.90;;;7.30;99.90;;;;;;5028566;28;20190;-68